Tiempo atmosférico en la estación meteorológica de Las Palmas de Gran Canaria, Tafira, Las Palmas (269 m.)



Fecha
DESCASC
Temp. máxima en grados centígrados (hora)
DESCASC
Temp. mínima en grados centígrados (hora)
DESCASC
Temp. media en grados centígrados
DESCASC
Racha de viento máxima en m/sg (hora)
DESCASC
Velocidad máxima media en intervalos de 10 minutos(hora)
DESCASC
Precipitaciones diarias en mm
DESCASC
Precipitaciones de 00:00 a 06:00 en mm
DESCASC
Precipitaciones de 06:00 a 12:00 en mm
DESCASC
Precipitaciones de 12:00 a 18:00 en mm
DESCASC
Precipitaciones de 18:00 a 24:00 en mm
DESCASC
02-08-2020 24.2 (16:00) 20.2 (06:50) 22.2 9.44 (12:20) 5.83 (17:10) 0 0 0 0 0
01-08-2020 24.3 (14:50) 19.6 (07:10) 21.9 9.17 (17:20) 5.28 (17:00) 0 0 0 0 0
31-07-2020 23.7 (15:50) 19.5 (07:00) 21.6 7.5 (19:00) 4.72 (19:10) 0 0 0 0 0
30-07-2020 23 (14:40) 19.2 (00:00) 21.1 8.89 (13:10) 5.28 (14:00) 0 0 0 0 0
29-07-2020 23.4 (13:40) 19.6 (00:00) 21.5 9.17 (14:20) 5.56 (21:30) 0 0 0 0 0
28-07-2020 22.6 (14:00) 19.4 (00:00) 21 9.72 (20:00) 5.28 (16:00) 0 0 0 0 0
27-07-2020 23.7 (14:20) 19.2 (00:00) 21.5 10 (20:20) 6.39 (19:30) 0 0 0 0 0
26-07-2020 22.6 (16:50) 19.7 (00:00) 21.2 9.72 (06:10) 6.11 (12:00) 0 0 0 0 0
25-07-2020 23.4 (14:00) 19 (00:00) 21.2 10.83 (03:30) 6.11 (16:40) 0 0 0 0 0
24-07-2020 22.7 (13:10) 19.1 (00:00) 20.9 10.83 (17:20) 5.83 (21:30) 0 0 0 0 0
23-07-2020 23.5 (15:20) 19.3 (00:00) 21.4 9.17 (14:50) 5.83 (14:20) 0 0 0 0 0
22-07-2020 23.1 (15:20) 19.9 (00:00) 21.5 8.61 (01:40) 5 (01:40) 0 0 0 0 0
21-07-2020 23.9 (17:00) 19.6 (00:00) 21.8 10 (01:50) 5.56 (02:00) 0 0 0 0 0
20-07-2020 24.4 (00:20) 19.9 (00:00) 22.1 10.56 (10:50) 7.22 (19:50) 0 0 0 0 0
19-07-2020 31.6 (15:00) 22.3 (00:00) 26.9 8.33 (20:30) 5 (20:30) 0 0 0 0 0
18-07-2020 28.4 (13:10) 18.8 (00:00) 23.6 8.89 (17:40) 4.72 (18:30) 0 0 0 0 0
17-07-2020 23.5 (13:10) 18.7 (00:00) 21.1 8.89 (18:20) 5 (17:40) 0 0 0 0 0
16-07-2020 23.5 (14:10) 19 (00:00) 21.3 9.17 (18:00) 5.28 (17:10) 0 0 0 0 0
15-07-2020 22.7 (12:20) 18.8 (00:00) 20.8 12.22 (07:20) 6.67 (16:20) 0 0 0 0 0
14-07-2020 22.6 (14:50) 18.7 (00:00) 20.7 12.78 (17:20) 7.78 (17:20) 0 0 0 0 0
13-07-2020 23.1 (14:50) 18.6 (00:00) 20.9 9.72 (19:20) 6.11 (18:30) 0 0 0 0 0
12-07-2020 23.7 (15:10) 18.4 (07:30) 21.1 7.78 (19:30) 5 (17:40) 0 0 0 0 0
11-07-2020 23.3 (14:10) 19.2 (06:00) 21.3 10.28 (16:20) 6.11 (10:50) 0 0 0 0 0
10-07-2020 22.7 (12:30) 19 (00:00) 20.9 11.11 (19:10) 7.22 (19:10) 0 0 0 0 0
09-07-2020 23.6 (14:00) 18.8 (03:50) 21.2 8.89 (19:20) 5.83 (22:30) 0 0 0 0 0
08-07-2020 27.1 (16:40) 19.1 (05:40) 23.1 9.17 (15:20) 5.28 (07:10) 0 0 0 0 0

Gráficas

Temp. máximas Temp. mínimas Temp. medias Precipitaciones Rachas de viento máximas Velocidades máximas media en intervalos de 10 minutos

Datos horarios

Fecha y hora oficial Temperatura (ºC) Velocidad del viento (km/h) Dirección del viento Racha (km/h) Dirección de racha Precipitación (mm) Presión (hPa) Tendencia (hPa) Humedad (%)
2020-08-06 23:00:00 20.8 16 Noroeste 30 Noroeste 0 -- -- 77
2020-08-06 22:00:00 20.7 13 Noroeste 33 Noroeste 0 -- -- 79
2020-08-06 21:00:00 20.9 20 Noroeste 33 Noroeste 0 -- -- 76
2020-08-06 20:00:00 21.5 18 Noroeste 32 Noroeste 0 -- -- 81
2020-08-06 19:00:00 22 21 Noroeste 37 Noroeste -- -- -- 75
2020-08-06 18:00:00 23 20 Noroeste 32 Noroeste 0 -- -- 70
2020-08-06 17:00:00 23.7 18 Noroeste 36 Noroeste 0 -- -- 67
2020-08-06 16:00:00 24 16 Noroeste 31 Noroeste 0 -- -- 64
2020-08-06 15:00:00 22.9 15 Noroeste 29 Noroeste 0 -- -- 71
2020-08-06 14:00:00 23.6 17 Noroeste 30 Noroeste 0 -- -- 68
2020-08-06 13:00:00 22.8 17 Noroeste 30 Noroeste 0 -- -- 73
2020-08-06 12:00:00 22.4 17 Noroeste 31 Noroeste 0 -- -- 73
2020-08-06 11:00:00 21.4 18 Noroeste 28 Noroeste 0 -- -- 76
2020-08-06 10:00:00 20.5 17 Noroeste 27 Noroeste 0 -- -- 81
2020-08-06 09:00:00 20.1 16 Noroeste 25 Noroeste 0 -- -- 83
2020-08-06 08:00:00 19.9 13 Noroeste 24 Oeste 0 -- -- 84
2020-08-06 07:00:00 19.4 11 Noroeste 22 Noroeste 0 -- -- 87
2020-08-06 06:00:00 19.4 13 Noroeste 24 Noroeste 0 -- -- 87
2020-08-06 05:00:00 19.4 14 Noroeste 30 Oeste 0 -- -- 88
2020-08-06 04:00:00 19.5 15 Noroeste 27 Oeste 0 -- -- 87
2020-08-06 03:00:00 19.8 15 Noroeste 30 Noroeste 0 -- -- 88
2020-08-06 02:00:00 19.8 15 Noroeste 35 Noroeste 0 -- -- 88
2020-08-06 01:00:00 20.2 16 Noroeste 33 Noroeste 0 -- -- 85
2020-08-06 00:00:00 20 17 Noroeste 34 Noroeste 0 -- -- 84
2020-08-05 23:00:00 20.3 17 Noroeste 41 Noroeste 0 -- -- 85
2020-08-05 22:00:00 20.5 20 Noroeste 37 Noroeste 0 -- -- 83
2020-08-05 21:00:00 20.6 19 Noroeste 37 Oeste 0 -- -- 83
2020-08-05 20:00:00 21.4 19 Noroeste 38 Oeste 0 -- -- 79
2020-08-05 19:00:00 21.6 21 Noroeste 34 Norte 0 -- -- 77
2020-08-05 18:00:00 22.6 22 Noroeste 36 Noroeste 0 -- -- 72
2020-08-05 17:00:00 23.3 22 Noroeste 39 Oeste 0 -- -- 73
2020-08-05 16:00:00 23.7 21 Noroeste 37 Noroeste 0 -- -- 69
2020-08-05 15:00:00 23.6 22 Noroeste 36 Oeste 0 -- -- 69
2020-08-05 14:00:00 23.6 18 Noroeste 34 Noroeste 0 -- -- 67
2020-08-05 13:00:00 23.2 20 Noroeste 33 Noroeste 0 -- -- 69
2020-08-05 12:00:00 22.7 18 Noroeste 33 Noroeste 0 -- -- 70
2020-08-05 11:00:00 21.7 19 Noroeste 28 Noroeste 0 -- -- 74
2020-08-05 10:00:00 21.2 15 Noroeste 31 Noroeste 0 -- -- 76
2020-08-05 09:00:00 20.2 15 Noroeste 27 Noroeste 0 -- -- 79
2020-08-05 08:00:00 19.9 14 Noroeste 28 Noroeste 0 -- -- 86
2020-08-05 07:00:00 19.8 13 Noroeste 28 Oeste 0 -- -- 86
2020-08-05 06:00:00 19.8 14 Noroeste 26 Noroeste 0 -- -- 87
2020-08-05 05:00:00 19.9 12 Noroeste 28 Noroeste 0 -- -- 87
2020-08-05 04:00:00 20 13 Noroeste 31 Noroeste 0 -- -- 86
2020-08-05 03:00:00 20.2 15 Noroeste 28 Noroeste 0 -- -- 87
2020-08-05 02:00:00 20.2 13 Noroeste 30 Noroeste 0 -- -- 89
2020-08-05 01:00:00 20.4 17 Noroeste 29 Noroeste 0 -- -- 86
2020-08-05 00:00:00 20.4 17 Noroeste 31 Oeste 0 -- -- 86
2020-08-04 23:00:00 20.6 15 Noroeste 29 Noroeste 0 -- -- 83
2020-08-04 22:00:00 20.6 17 Noroeste 35 Oeste 0 -- -- 86
2020-08-04 21:00:00 20.7 17 Noroeste 31 Noroeste 0 -- -- 87
2020-08-04 20:00:00 21.2 17 Noroeste 35 Noroeste 0 -- -- 84
2020-08-04 19:00:00 21.8 20 Noroeste 33 Noroeste 0 -- -- 81
2020-08-04 18:00:00 22.7 18 Noroeste 38 Noroeste 0 -- -- 76
2020-08-04 17:00:00 23 22 Noroeste 37 Noroeste 0 -- -- 74
2020-08-04 16:00:00 22.9 19 Noroeste 37 Noroeste 0 -- -- 76
2020-08-04 15:00:00 23.9 18 Noroeste 34 Noroeste 0 -- -- 71
2020-08-04 14:00:00 23.2 20 Noroeste 32 Norte 0 -- -- 75
2020-08-04 13:00:00 22.7 19 Noroeste 30 Norte 0 -- -- 75
2020-08-04 12:00:00 21.7 16 Noroeste 26 Noroeste 0 -- -- 82
2020-08-04 11:00:00 20.8 10 Noroeste 22 Noroeste 0 -- -- 90
2020-08-04 10:00:00 20 11 Noroeste 23 Oeste 0 -- -- 93
2020-08-04 09:00:00 19.5 10 Noroeste 20 Noroeste 0 -- -- 93
2020-08-04 08:00:00 19.6 11 Noroeste 28 Noroeste 0 -- -- 92
2020-08-04 07:00:00 19.7 12 Noroeste 25 Noroeste 0 -- -- 89
2020-08-04 06:00:00 19.7 13 Noroeste 31 Oeste 0 -- -- 89
2020-08-04 05:00:00 19.5 15 Noroeste 31 Oeste 0 -- -- 89
2020-08-04 04:00:00 19.5 19 Noroeste 35 Oeste 0 -- -- 89
2020-08-04 03:00:00 19.5 16 Noroeste 30 Noroeste 0 -- -- 89
2020-08-04 02:00:00 19.6 15 Noroeste 30 Noroeste 0 -- -- 90
2020-08-04 01:00:00 19.9 18 Noroeste 31 Oeste 0 -- -- 89
2020-08-04 00:00:00 19.9 18 Noroeste 31 Oeste 0 -- -- 88
2020-08-03 23:00:00 20 15 Noroeste 29 Noroeste 0 -- -- 88
2020-08-03 22:00:00 20.3 15 Noroeste 31 Oeste 0 -- -- 88
2020-08-03 21:00:00 20.5 18 Noroeste 32 Oeste 0 -- -- 85
2020-08-03 20:00:00 21.1 18 Noroeste 33 Noroeste 0 -- -- 82
2020-08-03 19:00:00 22 19 Noroeste 33 Noroeste 0 -- -- 78
2020-08-03 18:00:00 22.9 19 Noroeste 36 Noroeste 0 -- -- 76
2020-08-03 17:00:00 23.1 21 Noroeste 37 Oeste 0 -- -- 75
2020-08-03 16:00:00 23.6 21 Noroeste 39 Noroeste 0 -- -- 71
2020-08-03 15:00:00 23.5 21 Noroeste 37 Noroeste 0 -- -- 71
2020-08-03 14:00:00 23.3 21 Noroeste 37 Noroeste 0 -- -- 73
2020-08-03 13:00:00 22.7 21 Noroeste 40 Oeste 0 -- -- 75
2020-08-03 12:00:00 22.4 20 Noroeste 36 Noroeste 0 -- -- 75
2020-08-03 11:00:00 21.3 21 Noroeste 37 Noroeste 0 -- -- 83
2020-08-03 10:00:00 20.7 19 Noroeste 33 Noroeste 0 -- -- 85
2020-08-03 09:00:00 20.7 15 Noroeste 30 Noroeste 0 -- -- 86
2020-08-03 08:00:00 20.1 17 Noroeste 33 Oeste 0 -- -- 87
2020-08-03 07:00:00 20 19 Noroeste 33 Oeste 0 -- -- 89
2020-08-03 06:00:00 20.1 19 Noroeste 36 Noroeste 0 -- -- 90
2020-08-03 05:00:00 20.6 17 Noroeste 30 Noroeste 0 -- -- 86
2020-08-03 04:00:00 21 14 Noroeste 28 Noroeste 0 -- -- 79
2020-08-03 03:00:00 21.4 14 Noroeste 25 Oeste 0 -- -- 73
2020-08-03 02:00:00 21.3 12 Oeste 32 Oeste 0 -- -- 77
2020-08-03 01:00:00 21 17 Noroeste 31 Oeste 0 -- -- 84
2020-08-03 00:00:00 21.2 17 Noroeste 26 Oeste 0 -- -- 81
2020-08-02 23:00:00 20.9 14 Noroeste 31 Oeste 0 -- -- 87
2020-08-02 22:00:00 21 17 Noroeste 30 Noroeste 0 -- -- 87
2020-08-02 21:00:00 21.5 17 Noroeste 31 Noroeste 0 -- -- 86
2020-08-02 20:00:00 22.1 18 Noroeste 30 Noroeste 0 -- -- 84
2020-08-02 19:00:00 23.1 15 Noroeste 34 Norte 0 -- -- 80
2020-08-02 18:00:00 23.5 18 Noroeste 33 Noroeste 0 -- -- 79
2020-08-02 17:00:00 24.2 17 Noroeste 28 Noroeste 0 -- -- 74
2020-08-02 16:00:00 24.2 15 Noroeste 29 Oeste 0 -- -- 76
2020-08-02 15:00:00 23.9 17 Noroeste 28 Noroeste 0 -- -- 76
2020-08-02 14:00:00 23.5 18 Noroeste 31 Noroeste 0 -- -- 77
2020-08-02 13:00:00 23.2 20 Noroeste 34 Norte 0 -- -- 78
2020-08-02 12:00:00 22.8 18 Noroeste 34 Noroeste 0 -- -- 81
2020-08-02 11:00:00 21.8 17 Noroeste 30 Noroeste 0 -- -- 86
2020-08-02 10:00:00 21 16 Noroeste 29 Noroeste 0 -- -- 87
2020-08-02 09:00:00 20.9 14 Noroeste 28 Oeste 0 -- -- 89
2020-08-02 08:00:00 20.4 13 Noroeste 24 Noroeste 0 -- -- 89
2020-08-02 07:00:00 20.2 14 Noroeste 27 Oeste 0 -- -- 89
2020-08-02 06:00:00 20.3 15 Noroeste 30 Noroeste 0 -- -- 89
2020-08-02 05:00:00 20.3 18 Noroeste 30 Oeste 0 -- -- 89
2020-08-02 04:00:00 20.3 16 Noroeste 26 Oeste 0 -- -- 88
2020-08-02 03:00:00 20.4 14 Noroeste 26 Oeste 0 -- -- 89
2020-08-02 02:00:00 20.4 13 Noroeste 25 Noroeste 0 -- -- 92
2020-08-02 01:00:00 20.5 14 Noroeste 26 Noroeste 0 -- -- 92
2020-08-02 00:00:00 20.5 13 Noroeste 32 Noroeste 0 -- -- 91
2020-08-01 23:00:00 20.5 13 Noroeste 30 Noroeste 0 -- -- 91
2020-08-01 22:00:00 20.6 16 Noroeste 29 Noroeste 0 -- -- 90
2020-08-01 21:00:00 21.4 10 Noroeste 20 Oeste 0 -- -- 82
2020-08-01 20:00:00 23.2 10 Noroeste 23 Oeste 0 -- -- 70
2020-08-01 19:00:00 22.8 13 Noroeste 26 Noroeste 0 -- -- 77
2020-08-01 18:00:00 22 17 Noroeste 33 Noroeste 0 -- -- 79
2020-08-01 17:00:00 22.8 19 Noroeste 29 Noroeste 0 -- -- 77
2020-08-01 16:00:00 24 15 Noroeste 26 Noroeste 0 -- -- 73
2020-08-01 15:00:00 24 16 Noroeste 28 Norte 0 -- -- 75
2020-08-01 14:00:00 23.7 12 Noroeste 21 Noroeste 0 -- -- 74
2020-08-01 13:00:00 22.9 12 Noroeste 24 Norte 0 -- -- 76
2020-08-01 12:00:00 22.2 8 Norte 17 Norte 0 -- -- 81
2020-08-01 11:00:00 21.3 4 Norte 12 Noroeste 0 -- -- 84
2020-08-01 10:00:00 20.3 7 Noroeste 17 Noroeste 0 -- -- 88
2020-08-01 09:00:00 20.1 9 Noroeste 16 Noroeste 0 -- -- 88
2020-08-01 08:00:00 19.8 6 Noroeste 17 Noroeste 0 -- -- 90
2020-08-01 07:00:00 19.7 8 Noroeste 19 Noroeste 0 -- -- 91
2020-08-01 06:00:00 19.7 9 Noroeste 15 Noroeste 0 -- -- 90
2020-08-01 05:00:00 19.7 9 Noroeste 15 Noroeste 0 -- -- 90
2020-08-01 04:00:00 19.7 6 Noroeste 12 Noroeste 0 -- -- 90
2020-08-01 03:00:00 19.7 6 Noroeste 14 Noroeste 0 -- -- 90
2020-08-01 02:00:00 19.9 7 Noroeste 14 Norte 0 -- -- 88
2020-08-01 01:00:00 20.1 6 Noroeste 14 Noroeste 0 -- -- 89
2020-08-01 00:00:00 20.1 7 Noroeste 17 Noroeste 0 -- -- 89
2020-07-31 23:00:00 20 8 Noroeste 18 Noroeste 0 -- -- 88
2020-07-31 22:00:00 20.2 11 Noroeste 18 Noroeste 0 -- -- 87
2020-07-31 21:00:00 20.4 9 Noroeste 20 Noroeste 0 -- -- 86
2020-07-31 20:00:00 20.8 10 Noroeste 26 Noroeste 0 -- -- 84
2020-07-31 19:00:00 21.2 15 Noroeste 27 Noroeste 0 -- -- 82
2020-07-31 18:00:00 21.7 13 Noroeste 25 Noroeste 0 -- -- 76
2020-07-31 17:00:00 22.2 13 Noroeste 23 Noroeste 0 -- -- 75
2020-07-31 16:00:00 23.6 10 Noroeste 20 Norte 0 -- -- 69
2020-07-31 15:00:00 23.3 10 Norte 21 Norte 0 -- -- 71
2020-07-31 14:00:00 22.9 9 Norte 21 Norte 0 -- -- 72
2020-07-31 13:00:00 22.9 9 Nordeste 20 Nordeste 0 -- -- 72
2020-07-31 12:00:00 21.8 7 Norte 17 Norte 0 -- -- 75
2020-07-31 11:00:00 21.1 6 Noroeste 15 Norte 0 -- -- 78
2020-07-31 10:00:00 20.7 6 Nordeste 14 Nordeste 0 -- -- 80
2020-07-31 09:00:00 20 5 Nordeste 10 Nordeste 0 -- -- 81
2020-07-31 08:00:00 19.6 7 Noroeste 12 Noroeste 0 -- -- 85
2020-07-31 07:00:00 19.5 6 Noroeste 13 Noroeste 0 -- -- 84
2020-07-31 06:00:00 19.7 3 Noroeste 12 Noroeste 0 -- -- 83
2020-07-31 05:00:00 19.7 6 Noroeste 14 Norte 0 -- -- 81
2020-07-31 04:00:00 19.9 6 Noroeste 16 Noroeste 0 -- -- 84
2020-07-31 03:00:00 19.9 9 Noroeste 16 Noroeste 0 -- -- 81
2020-07-31 02:00:00 19.9 5 Noroeste 14 Norte 0 -- -- 81
2020-07-31 01:00:00 19.9 9 Noroeste 18 Noroeste 0 -- -- 83
2020-07-31 00:00:00 19.8 10 Noroeste 22 Noroeste 0 -- -- 82
2020-07-30 23:00:00 19.8 9 Noroeste 23 Noroeste 0 -- -- 83
2020-07-30 22:00:00 19.9 11 Noroeste 21 Noroeste 0 -- -- 82
2020-07-30 21:00:00 20.1 13 Noroeste 21 Noroeste 0 -- -- 83
2020-07-30 20:00:00 20.6 13 Noroeste 26 Noroeste 0 -- -- 79
2020-07-30 19:00:00 21.2 14 Noroeste 25 Norte 0 -- -- 75
2020-07-30 18:00:00 21.7 11 Norte 27 Norte 0 -- -- 75
2020-07-30 17:00:00 22.3 14 Noroeste 25 Noroeste 0 -- -- 70
2020-07-30 16:00:00 22.7 13 Noroeste 28 Norte 0 -- -- 70
2020-07-30 15:00:00 22.5 16 Noroeste 30 Noroeste 0 -- -- 70
2020-07-30 14:00:00 22.4 19 Norte 32 Noroeste 0 -- -- 71
2020-07-30 13:00:00 22.5 16 Noroeste 25 Noroeste 0 -- -- 69
2020-07-30 12:00:00 21.9 14 Noroeste 24 Noroeste 0 -- -- 71
2020-07-30 11:00:00 20.8 9 Noroeste 24 Noroeste 0 -- -- 75
2020-07-30 10:00:00 20.3 12 Noroeste 24 Norte 0 -- -- 75
2020-07-30 09:00:00 19.6 5 Norte 17 Noroeste 0 -- -- 80
2020-07-30 08:00:00 19.2 6 Norte 18 Noroeste 0 -- -- 79
2020-07-30 07:00:00 19.3 8 Noroeste 21 Noroeste 0 -- -- 81
2020-07-30 06:00:00 19.2 10 Noroeste 21 Noroeste 0 -- -- 79
2020-07-30 05:00:00 19.2 13 Noroeste 25 Noroeste 0 -- -- 78
2020-07-30 04:00:00 19.7 11 Noroeste 28 Noroeste 0 -- -- 78
2020-07-30 03:00:00 19.6 16 Noroeste 27 Norte 0 -- -- 79
2020-07-30 02:00:00 19.8 13 Noroeste 26 Noroeste 0 -- -- 79
2020-07-30 01:00:00 19.9 15 Noroeste 29 Oeste 0 -- -- 79
2020-07-30 00:00:00 20 17 Noroeste 31 Noroeste 0 -- -- 83
2020-07-29 23:00:00 20.2 16 Noroeste 31 Noroeste 0 -- -- 78
2020-07-29 22:00:00 20.2 14 Noroeste 30 Noroeste 0 -- -- 80
2020-07-29 21:00:00 20.4 16 Noroeste 27 Noroeste 0 -- -- 81
2020-07-29 20:00:00 20.7 17 Noroeste 31 Noroeste 0 -- -- 83
2020-07-29 19:00:00 21.2 20 Noroeste 31 Noroeste 0 -- -- 79
2020-07-29 18:00:00 22.1 17 Noroeste 31 Noroeste 0 -- -- 73
2020-07-29 17:00:00 22.6 17 Noroeste 31 Noroeste 0 -- -- 69
2020-07-29 16:00:00 22.5 16 Norte 29 Noroeste 0 -- -- 74
2020-07-29 15:00:00 23.3 16 Noroeste 33 Norte 0 -- -- 67
2020-07-29 14:00:00 22.8 18 Noroeste 28 Norte 0 -- -- 71
2020-07-29 13:00:00 22.6 13 Norte 28 Noroeste 0 -- -- 68
2020-07-29 12:00:00 21.3 14 Noroeste 29 Noroeste 0 -- -- 80
2020-07-29 11:00:00 21 15 Noroeste 26 Noroeste 0 -- -- 78
2020-07-29 10:00:00 20.6 16 Noroeste 26 Noroeste 0 -- -- 76
2020-07-29 09:00:00 20 12 Noroeste 25 Noroeste 0 -- -- 79
2020-07-29 08:00:00 19.7 13 Noroeste 26 Noroeste 0 -- -- 82
2020-07-29 07:00:00 19.6 14 Noroeste 28 Noroeste 0 -- -- 82
2020-07-29 06:00:00 19.6 17 Noroeste 30 Noroeste 0 -- -- 84
2020-07-29 05:00:00 19.6 17 Noroeste 28 Noroeste 0 -- -- 83
2020-07-29 04:00:00 19.8 14 Noroeste 28 Noroeste 0 -- -- 83
2020-07-29 03:00:00 19.8 16 Noroeste 27 Noroeste 0 -- -- 85
2020-07-29 02:00:00 19.9 14 Noroeste 28 Noroeste 0 -- -- 85
2020-07-29 01:00:00 19.9 16 Noroeste 27 Noroeste 0 -- -- 87
2020-07-29 00:00:00 19.9 16 Noroeste 27 Noroeste 0 -- -- 85
2020-07-28 23:00:00 20.1 17 Noroeste 31 Oeste 0 -- -- 85
2020-07-28 22:00:00 20.1 16 Noroeste 31 Oeste 0 -- -- 86
2020-07-28 21:00:00 20.1 17 Noroeste 31 Noroeste 0 -- -- 85
2020-07-28 20:00:00 20.4 18 Noroeste 35 Noroeste 0 -- -- 83
2020-07-28 19:00:00 21 16 Noroeste 31 Noroeste 0 -- -- 81
2020-07-28 18:00:00 21.2 18 Noroeste 29 Noroeste 0 -- -- 82
2020-07-28 17:00:00 21.7 17 Noroeste 32 Oeste 0 -- -- 79
2020-07-28 16:00:00 22 19 Noroeste 35 Norte 0 -- -- 78
2020-07-28 15:00:00 22.2 16 Noroeste 31 Noroeste 0 -- -- 78
2020-07-28 14:00:00 22.6 13 Noroeste 27 Noroeste -- -- -- 76
2020-07-28 13:00:00 21.7 15 Noroeste 28 Noroeste 0 -- -- 81
2020-07-28 12:00:00 21.6 14 Noroeste 25 Noroeste 0 -- -- 80
2020-07-28 11:00:00 21.1 12 Noroeste 22 Noroeste 0 -- -- 83
2020-07-28 10:00:00 20.3 12 Noroeste 23 Oeste 0 -- -- 86
2020-07-28 09:00:00 19.8 12 Noroeste 21 Noroeste 0 -- -- 88
2020-07-28 08:00:00 19.5 9 Noroeste 23 Noroeste 0 -- -- 88
2020-07-28 07:00:00 19.5 11 Noroeste 22 Noroeste 0 -- -- 89
2020-07-28 06:00:00 19.7 11 Noroeste 24 Oeste 0 -- -- 89
2020-07-28 05:00:00 19.6 13 Noroeste 25 Noroeste 0 -- -- 88
2020-07-28 04:00:00 19.8 13 Noroeste 24 Noroeste 0 -- -- 88
2020-07-28 03:00:00 19.8 15 Noroeste 27 Noroeste 0 -- -- 88
2020-07-28 02:00:00 20 15 Noroeste 25 Norte 0 -- -- 89
2020-07-28 01:00:00 20.1 12 Noroeste 25 Noroeste 0 -- -- 89
2020-07-28 00:00:00 20.2 14 Noroeste 26 Oeste 0 -- -- 88
2020-07-27 23:00:00 20.2 15 Noroeste 30 Noroeste 0 -- -- 88
2020-07-27 22:00:00 20.3 17 Noroeste 34 Noroeste 0 -- -- 88
2020-07-27 21:00:00 20.6 17 Noroeste 36 Noroeste 0 -- -- 87
2020-07-27 20:00:00 20.9 17 Noroeste 34 Noroeste 0 -- -- 84
2020-07-27 19:00:00 21.2 18 Noroeste 31 Noroeste 0 -- -- 82
2020-07-27 18:00:00 21.5 20 Noroeste 32 Noroeste 0 -- -- 80
2020-07-27 17:00:00 22 18 Noroeste 30 Noroeste 0 -- -- 79
2020-07-27 16:00:00 22.9 18 Noroeste 30 Noroeste 0 -- -- 75
2020-07-27 15:00:00 23.3 15 Noroeste 30 Noroeste 0 -- -- 72
2020-07-27 14:00:00 23.2 18 Noroeste 29 Norte 0 -- -- 71
2020-07-27 13:00:00 23.2 13 Noroeste 27 Norte 0 -- -- 72
2020-07-27 12:00:00 22 11 Noroeste 24 Noroeste 0 -- -- 76
2020-07-27 11:00:00 21.1 10 Noroeste 22 Norte 0 -- -- 77
2020-07-27 08:00:00 19.5 14 Noroeste 22 Noroeste 0 -- -- 85
2020-07-27 07:00:00 19.3 10 Noroeste 24 Noroeste 0 -- -- 83
2020-07-27 06:00:00 19.4 12 Noroeste 22 Oeste 0 -- -- 85
2020-07-27 05:00:00 19.5 13 Noroeste 27 Oeste 0 -- -- 84
2020-07-27 04:00:00 19.4 12 Noroeste 22 Noroeste 0 -- -- 88
2020-07-27 03:00:00 19.4 12 Noroeste 24 Noroeste 0 -- -- 86
2020-07-27 02:00:00 19.5 12 Noroeste 25 Noroeste 0 -- -- 86
2020-07-27 01:00:00 19.7 15 Noroeste 26 Noroeste 0 -- -- 84
2020-07-27 00:00:00 19.9 14 Noroeste 26 Noroeste 0 -- -- 83
2020-07-26 23:00:00 20 14 Noroeste 31 Noroeste 0 -- -- 81
2020-07-26 22:00:00 20.2 18 Noroeste 28 Noroeste 0 -- -- 81
2020-07-26 21:00:00 20.4 15 Noroeste 32 Noroeste 0 -- -- 83
2020-07-26 20:00:00 20.9 17 Noroeste 31 Noroeste 0 -- -- 80
2020-07-26 19:00:00 21.4 17 Noroeste 28 Noroeste 0 -- -- 76
2020-07-26 18:00:00 22 14 Noroeste 26 Norte 0 -- -- 76
2020-07-26 17:00:00 22.1 15 Noroeste 26 Norte 0 -- -- 75
2020-07-26 16:00:00 22.2 17 Noroeste 30 Noroeste 0 -- -- 74
2020-07-26 15:00:00 22.3 15 Noroeste 31 Noroeste 0 -- -- 75
2020-07-26 14:00:00 22.2 17 Noroeste 31 Noroeste 0 -- -- 74
2020-07-26 13:00:00 21.3 22 Noroeste 34 Noroeste 0 -- -- 77
2020-07-26 12:00:00 21.2 22 Noroeste 33 Oeste 0 -- -- 77
2020-07-26 11:00:00 20.7 18 Noroeste 32 Noroeste 0 -- -- 80
2020-07-26 10:00:00 20.4 15 Noroeste 30 Noroeste 0 -- -- 83
2020-07-26 09:00:00 20.2 14 Noroeste 30 Noroeste 0 -- -- 82
2020-07-26 08:00:00 20 15 Noroeste 33 Noroeste 0 -- -- 81
2020-07-26 07:00:00 19.8 18 Noroeste 35 Oeste 0 -- -- 83
2020-07-26 06:00:00 19.8 17 Noroeste 33 Noroeste 0 -- -- 84
2020-07-26 05:00:00 19.8 15 Noroeste 31 Noroeste 0 -- -- 84
2020-07-26 04:00:00 19.9 15 Noroeste 29 Oeste 0 -- -- 86
2020-07-26 03:00:00 20 14 Noroeste 26 Oeste 0 -- -- 85
2020-07-26 02:00:00 20 14 Noroeste 24 Noroeste 0 -- -- 84
2020-07-26 01:00:00 20.1 12 Noroeste 23 Noroeste 0 -- -- 85
2020-07-26 00:00:00 20.2 13 Noroeste 26 Noroeste 0 -- -- 84
2020-07-25 23:00:00 20.2 16 Noroeste 28 Noroeste 0 -- -- 84
2020-07-25 22:00:00 20.2 15 Noroeste 29 Noroeste 0 -- -- 82
2020-07-25 21:00:00 20.3 18 Noroeste 33 Oeste 0 -- -- 82
2020-07-25 20:00:00 20.8 20 Noroeste 38 Noroeste 0 -- -- 78
2020-07-25 19:00:00 21.6 21 Noroeste 35 Noroeste 0 -- -- 76
2020-07-25 18:00:00 22.3 22 Noroeste 37 Noroeste 0 -- -- 74
2020-07-25 17:00:00 23.4 19 Noroeste 35 Norte 0 -- -- 72
2020-07-25 16:00:00 23.2 19 Noroeste 38 Noroeste 0 -- -- 71
2020-07-25 15:00:00 23.2 18 Noroeste 33 Noroeste 0 -- -- 70
2020-07-25 14:00:00 23.4 17 Noroeste 33 Noroeste 0 -- -- 70
2020-07-25 13:00:00 22.5 17 Noroeste 29 Noroeste 0 -- -- 74
2020-07-25 12:00:00 22.5 16 Noroeste 31 Noroeste 0 -- -- 74
2020-07-25 11:00:00 21.3 17 Noroeste 32 Noroeste 0 -- -- 78
2020-07-25 10:00:00 20.6 15 Noroeste 30 Noroeste 0 -- -- 83
2020-07-25 09:00:00 19.7 17 Oeste 33 Noroeste 0 -- -- 83
2020-07-25 08:00:00 19.2 16 Noroeste 31 Noroeste 0 -- -- 83
2020-07-25 07:00:00 19.1 18 Noroeste 36 Oeste 0 -- -- 84
2020-07-25 06:00:00 19.1 20 Noroeste 37 Noroeste 0 -- -- 85
2020-07-25 05:00:00 19.1 19 Noroeste 33 Oeste 0 -- -- 86
2020-07-25 04:00:00 19.3 21 Noroeste 39 Noroeste 0 -- -- 88
2020-07-25 03:00:00 19.2 21 Noroeste 35 Oeste 0 -- -- 89
2020-07-25 02:00:00 19.2 19 Noroeste 35 Oeste 0 -- -- 90
2020-07-25 01:00:00 19.3 17 Noroeste 33 Noroeste 0 -- -- 90
2020-07-25 00:00:00 19.5 16 Noroeste 32 Noroeste 0 -- -- 89
2020-07-24 23:00:00 19.5 17 Noroeste 34 Oeste 0 -- -- 88
2020-07-24 22:00:00 19.8 17 Noroeste 33 Oeste 0 -- -- 88
2020-07-24 21:00:00 19.9 18 Noroeste 32 Noroeste 0 -- -- 87
2020-07-24 20:00:00 20.3 19 Noroeste 35 Oeste 0 -- -- 85
2020-07-24 19:00:00 20.9 20 Noroeste 34 Noroeste 0 -- -- 82
2020-07-24 18:00:00 22.2 18 Noroeste 39 Oeste 0 -- -- 78
2020-07-24 17:00:00 22 17 Noroeste 33 Noroeste 0 -- -- 79
2020-07-24 16:00:00 22.1 17 Noroeste 34 Noroeste 0 -- -- 77
2020-07-24 15:00:00 22 17 Noroeste 30 Noroeste 0 -- -- 77
2020-07-24 14:00:00 22 19 Noroeste 28 Noroeste 0 -- -- 77
2020-07-24 13:00:00 21.7 17 Noroeste 31 Noroeste 0 -- -- 77
2020-07-24 12:00:00 20.7 19 Noroeste 28 Noroeste 0 -- -- 84
2020-07-24 11:00:00 20.3 18 Noroeste 30 Oeste 0 -- -- 84
2020-07-24 10:00:00 19.9 15 Noroeste 30 Noroeste 0 -- -- 84
2020-07-24 09:00:00 19.5 16 Noroeste 30 Noroeste 0 -- -- 85
2020-07-24 08:00:00 19.3 15 Noroeste 30 Oeste 0 -- -- 85
2020-07-24 07:00:00 19.2 15 Noroeste 29 Oeste 0 -- -- 86
2020-07-24 06:00:00 19.2 17 Noroeste 29 Noroeste 0 -- -- 87
2020-07-24 05:00:00 19.2 16 Noroeste 30 Oeste 0 -- -- 88
2020-07-24 04:00:00 19.3 16 Noroeste 33 Oeste 0 -- -- 86
2020-07-24 03:00:00 19.3 15 Noroeste 32 Oeste 0 -- -- 88
2020-07-24 02:00:00 19.5 17 Noroeste 32 Noroeste 0 -- -- 88
2020-07-24 01:00:00 19.5 15 Noroeste 27 Oeste 0 -- -- 87
2020-07-24 00:00:00 19.6 15 Noroeste 29 Noroeste 0 -- -- 87
2020-07-23 23:00:00 19.8 14 Noroeste 31 Noroeste 0 -- -- 86
2020-07-23 22:00:00 19.9 17 Noroeste 28 Noroeste 0 -- -- 86
2020-07-23 21:00:00 20.1 15 Noroeste 28 Oeste 0 -- -- 84
2020-07-23 20:00:00 20.8 15 Noroeste 32 Oeste 0 -- -- 81
2020-07-23 19:00:00 21.5 16 Noroeste 31 Noroeste 0 -- -- 80
2020-07-23 18:00:00 21.4 20 Noroeste 30 Noroeste 0 -- -- 80
2020-07-23 17:00:00 22.4 18 Noroeste 28 Noroeste 0 -- -- 75
2020-07-23 16:00:00 22.9 18 Noroeste 28 Noroeste 0 -- -- 74
2020-07-23 15:00:00 23.1 19 Noroeste 33 Norte 0 -- -- 73
2020-07-23 14:00:00 22.9 19 Noroeste 31 Noroeste 0 -- -- 76
2020-07-23 13:00:00 22.7 21 Noroeste 30 Noroeste 0 -- -- 75
2020-07-23 12:00:00 21.6 17 Noroeste 32 Noroeste 0 -- -- 79
2020-07-23 11:00:00 21 18 Noroeste 30 Noroeste 0 -- -- 83
2020-07-23 10:00:00 20.5 15 Noroeste 27 Noroeste 0 -- -- 84
2020-07-23 09:00:00 19.9 15 Noroeste 27 Noroeste 0 -- -- 87
2020-07-23 08:00:00 19.4 15 Noroeste 31 Oeste 0 -- -- 89
2020-07-23 07:00:00 19.4 13 Noroeste 30 Oeste 0 -- -- 88
2020-07-23 06:00:00 19.4 14 Noroeste 27 Oeste 0 -- -- 88
2020-07-23 05:00:00 19.3 14 Noroeste 30 Oeste 0 -- -- 88
2020-07-23 04:00:00 19.3 15 Noroeste 25 Noroeste 0 -- -- 88
2020-07-23 03:00:00 19.4 13 Noroeste 28 Noroeste 0 -- -- 88
2020-07-23 02:00:00 19.8 16 Noroeste 26 Noroeste -- -- -- 86
2020-07-23 01:00:00 19.9 14 Noroeste 24 Noroeste 0 -- -- 85
2020-07-23 00:00:00 20.2 12 Noroeste 23 Noroeste 0 -- -- 85
2020-07-22 23:00:00 20.3 13 Noroeste 24 Noroeste 0 -- -- 83
2020-07-22 22:00:00 20.3 14 Noroeste 25 Noroeste 0 -- -- 83
2020-07-22 21:00:00 20.5 14 Noroeste 27 Noroeste 0 -- -- 82
2020-07-22 20:00:00 20.9 13 Noroeste 27 Noroeste 0 -- -- 80
2020-07-22 19:00:00 21.4 15 Noroeste 28 Noroeste 0 -- -- 80
2020-07-22 18:00:00 21.9 17 Noroeste 27 Noroeste 0 -- -- 76
2020-07-22 17:00:00 22.5 14 Noroeste 28 Noroeste 0 -- -- 75
2020-07-22 16:00:00 22.9 15 Noroeste 27 Noroeste 0 -- -- 73
2020-07-22 15:00:00 22.3 16 Noroeste 27 Noroeste 0 -- -- 77
2020-07-22 14:00:00 22.5 14 Noroeste 28 Noroeste 0 -- -- 77
2020-07-22 13:00:00 22.4 13 Noroeste 26 Noroeste 0 -- -- 74
2020-07-22 12:00:00 21.6 12 Noroeste 26 Noroeste 0 -- -- 79
2020-07-22 11:00:00 21.4 11 Noroeste 25 Noroeste 0 -- -- 75
2020-07-22 10:00:00 20.5 12 Noroeste 24 Noroeste 0 -- -- 79
2020-07-22 09:00:00 20.1 13 Noroeste 22 Noroeste 0 -- -- 81
2020-07-22 08:00:00 20 15 Noroeste 27 Noroeste 0 -- -- 80
2020-07-22 07:00:00 19.9 13 Noroeste 24 Noroeste 0 -- -- 80
2020-07-22 06:00:00 19.9 14 Noroeste 30 Noroeste 0 -- -- 81
2020-07-22 05:00:00 20 14 Noroeste 28 Noroeste 0 -- -- 83
2020-07-22 04:00:00 20.1 17 Noroeste 30 Noroeste 0 -- -- 82
2020-07-22 03:00:00 20.1 12 Noroeste 26 Noroeste 0 -- -- 84
2020-07-22 02:00:00 20.1 16 Noroeste 31 Noroeste 0 -- -- 86
2020-07-22 01:00:00 20.3 13 Noroeste 29 Oeste 0 -- -- 80
2020-07-22 00:00:00 20.3 14 Noroeste 24 Noroeste 0 -- -- 79
2020-07-21 23:00:00 20.3 13 Noroeste 28 Noroeste 0 -- -- 79
2020-07-21 22:00:00 20.5 12 Noroeste 26 Noroeste 0 -- -- 78
2020-07-21 21:00:00 20.5 13 Noroeste 28 Noroeste 0 -- -- 79
2020-07-21 20:00:00 20.8 18 Noroeste 30 Noroeste 0 -- -- 76
2020-07-21 19:00:00 21.3 17 Noroeste 32 Noroeste 0 -- -- 73
2020-07-21 18:00:00 22.3 15 Noroeste 29 Noroeste 0 -- -- 72
2020-07-21 17:00:00 23.9 12 Norte 32 Noroeste 0 -- -- 66
2020-07-21 16:00:00 23.3 14 Noroeste 31 Norte 0 -- -- 65
2020-07-21 15:00:00 22.9 16 Noroeste 30 Noroeste 0 -- -- 67
2020-07-21 14:00:00 22.6 19 Noroeste 34 Noroeste 0 -- -- 67
2020-07-21 13:00:00 22.9 17 Noroeste 30 Noroeste 0 -- -- 66
2020-07-21 12:00:00 21.8 16 Noroeste 28 Noroeste 0 -- -- 71
2020-07-21 11:00:00 21.6 15 Noroeste 26 Oeste 0 -- -- 72
2020-07-21 10:00:00 20.5 12 Noroeste 27 Oeste 0 -- -- 75
2020-07-21 09:00:00 19.9 15 Noroeste 24 Noroeste 0 -- -- 76
2020-07-21 08:00:00 19.8 12 Noroeste 23 Noroeste 0 -- -- 77
2020-07-21 07:00:00 19.6 10 Noroeste 18 Noroeste 0 -- -- 77
2020-07-21 06:00:00 19.6 12 Noroeste 22 Noroeste 0 -- -- 81
2020-07-21 05:00:00 19.7 10 Noroeste 21 Norte 0 -- -- 81
2020-07-21 04:00:00 19.7 12 Noroeste 26 Noroeste 0 -- -- 82
2020-07-21 03:00:00 19.7 18 Noroeste 30 Noroeste 0 -- -- 82
2020-07-21 02:00:00 19.9 20 Noroeste 36 Noroeste 0 -- -- 83
2020-07-21 01:00:00 20 18 Noroeste 35 Oeste 0 -- -- 83
2020-07-21 00:00:00 20 19 Noroeste 33 Noroeste 0 -- -- 83
2020-07-20 23:00:00 20.1 17 Noroeste 36 Noroeste 0 -- -- 84
2020-07-20 22:00:00 20.2 18 Noroeste 33 Noroeste 0 -- -- 81
2020-07-20 21:00:00 20.3 17 Noroeste 35 Noroeste 0 -- -- 83
2020-07-20 20:00:00 20.6 23 Noroeste 37 Oeste 0 -- -- 80
2020-07-20 19:00:00 21.5 20 Noroeste 35 Noroeste 0 -- -- 76
2020-07-20 18:00:00 22 21 Noroeste 35 Noroeste 0 -- -- 74
2020-07-20 17:00:00 22.2 21 Noroeste 37 Noroeste 0 -- -- 77
2020-07-20 16:00:00 22.4 22 Noroeste 35 Noroeste 0 -- -- 73
2020-07-20 15:00:00 22.9 18 Noroeste 31 Noroeste 0 -- -- 73
2020-07-20 14:00:00 23 21 Noroeste 32 Noroeste 0 -- -- 72
2020-07-20 13:00:00 22.4 21 Noroeste 36 Norte 0 -- -- 77
2020-07-20 12:00:00 21.2 24 Noroeste 35 Noroeste 0 -- -- 81
2020-07-20 11:00:00 21.2 20 Noroeste 38 Norte 0 -- -- 81
2020-07-20 10:00:00 20.8 19 Noroeste 35 Noroeste 0 -- -- 84
2020-07-20 09:00:00 20.3 18 Noroeste 33 Norte 0 -- -- 85
2020-07-20 08:00:00 20 17 Noroeste 34 Oeste 0 -- -- 86
2020-07-20 07:00:00 20 18 Noroeste 33 Noroeste 0 -- -- 88
2020-07-20 06:00:00 20 18 Noroeste 33 Noroeste 0 -- -- 90
2020-07-20 05:00:00 20.2 19 Noroeste 34 Noroeste 0 -- -- 90
2020-07-20 04:00:00 20.4 17 Noroeste 31 Noroeste 0 -- -- 90
2020-07-20 03:00:00 21.6 15 Noroeste 29 Noroeste 0 -- -- 74
2020-07-20 02:00:00 22.9 13 Noroeste 28 Noroeste 0 -- -- 56
2020-07-20 01:00:00 23.5 13 Noroeste 26 Noroeste 0 -- -- 52
2020-07-20 00:00:00 24.3 15 Noroeste 29 Oeste 0 -- -- 49
2020-07-19 23:00:00 24.3 15 Noroeste 30 Noroeste 0 -- -- 50
2020-07-19 22:00:00 24.1 13 Noroeste 26 Noroeste 0 -- -- 55
2020-07-19 21:00:00 24.5 15 Noroeste 30 Oeste 0 -- -- 47
2020-07-19 20:00:00 25.3 13 Noroeste 26 Oeste 0 -- -- 51
2020-07-19 19:00:00 27 15 Noroeste 27 Noroeste 0 -- -- 41
2020-07-19 18:00:00 29.5 15 Noroeste 24 Noroeste 0 -- -- 26
2020-07-19 17:00:00 30.2 17 Noroeste 28 Noroeste 0 -- -- 29
2020-07-19 16:00:00 31.3 14 Noroeste 24 Noroeste 0 -- -- 26
2020-07-19 15:00:00 31.6 13 Noroeste 24 Norte 0 -- -- 27
2020-07-19 14:00:00 30.8 13 Noroeste 24 Noroeste 0 -- -- 27
2020-07-19 13:00:00 30.2 13 Noroeste 25 Noroeste 0 -- -- 28
2020-07-19 12:00:00 31 9 Noroeste 20 Noroeste 0 -- -- 28
2020-07-19 11:00:00 30.3 9 Oeste 19 Noroeste 0 -- -- 25
2020-07-19 10:00:00 27.8 10 Noroeste 17 Noroeste 0 -- -- 31
2020-07-19 09:00:00 25.5 7 Noroeste 14 Oeste 0 -- -- 34
2020-07-19 08:00:00 23.2 5 Sudoeste 11 Oeste 0 -- -- 41
2020-07-19 07:00:00 22.9 6 Oeste 13 Oeste 0 -- -- 41
2020-07-19 06:00:00 22.9 7 Oeste 15 Oeste 0 -- -- 44
2020-07-19 05:00:00 23.1 8 Oeste 19 Oeste 0 -- -- 49
2020-07-19 04:00:00 22.6 9 Oeste 19 Oeste 0 -- -- 57
2020-07-19 03:00:00 23 8 Oeste 21 Oeste 0 -- -- 55
2020-07-19 02:00:00 22.5 6 Oeste 18 Oeste 0 -- -- 60
2020-07-19 01:00:00 22.8 8 Oeste 20 Noroeste 0 -- -- 55
2020-07-19 00:00:00 23.5 9 Noroeste 19 Noroeste 0 -- -- 50
2020-07-18 23:00:00 23.1 7 Oeste 22 Oeste 0 -- -- 53
2020-07-18 22:00:00 22.3 12 Noroeste 21 Noroeste 0 -- -- 71
2020-07-18 21:00:00 22.4 11 Noroeste 27 Oeste 0 -- -- 78
2020-07-18 20:00:00 22.9 16 Noroeste 28 Noroeste 0 -- -- 82
2020-07-18 19:00:00 24.3 15 Noroeste 31 Oeste 0 -- -- 75
2020-07-18 18:00:00 25.7 16 Noroeste 32 Oeste 0 -- -- 68
2020-07-18 17:00:00 26.6 15 Noroeste 24 Noroeste 0 -- -- 66
2020-07-18 16:00:00 27.1 14 Noroeste 24 Oeste 0 -- -- 64
2020-07-18 15:00:00 27.4 12 Noroeste 22 Noroeste 0 -- -- 62
2020-07-18 14:00:00 27.8 11 Noroeste 18 Noroeste 0 -- -- 58
2020-07-18 13:00:00 28.1 9 Noroeste 17 Noroeste 0 -- -- 53
2020-07-18 12:00:00 25.9 10 Noroeste 17 Noroeste 0 -- -- 64
2020-07-18 11:00:00 26.4 7 Noroeste 12 Noroeste 0 -- -- 61
2020-07-18 10:00:00 25.2 6 Oeste 12 Oeste 0 -- -- 65
2020-07-18 09:00:00 21.4 8 Oeste 13 Oeste 0 -- -- 61
2020-07-18 08:00:00 20.4 8 Oeste 15 Oeste 0 -- -- 64
2020-07-18 07:00:00 18.9 10 Oeste 18 Oeste 0 -- -- 90
2020-07-18 06:00:00 18.9 10 Oeste 19 Oeste 0 -- -- 95
2020-07-18 05:00:00 19.2 12 Oeste 26 Oeste 0 -- -- 95
2020-07-18 04:00:00 19.2 14 Noroeste 24 Oeste 0 -- -- 95
2020-07-18 03:00:00 19.1 12 Oeste 23 Oeste 0 -- -- 94
2020-07-18 02:00:00 19.3 13 Oeste 24 Oeste 0 -- -- 94
2020-07-18 01:00:00 19.5 11 Noroeste 23 Oeste 0 -- -- 94
2020-07-18 00:00:00 19.5 14 Noroeste 24 Norte 0 -- -- 93
2020-07-17 23:00:00 19.7 13 Oeste 26 Oeste 0 -- -- 92
2020-07-17 22:00:00 19.9 12 Noroeste 25 Oeste 0 -- -- 90
2020-07-17 21:00:00 20.2 15 Noroeste 27 Noroeste 0 -- -- 89
2020-07-17 20:00:00 21.4 14 Noroeste 29 Noroeste 0 -- -- 85
2020-07-17 19:00:00 22.2 15 Noroeste 32 Noroeste 0 -- -- 81
2020-07-17 18:00:00 22.6 18 Noroeste 31 Noroeste 0 -- -- 80
2020-07-17 17:00:00 23.5 16 Noroeste 28 Noroeste 0 -- -- 77
2020-07-17 16:00:00 22.2 16 Noroeste 28 Noroeste 0 -- -- 81
2020-07-17 15:00:00 22.3 15 Noroeste 24 Noroeste 0 -- -- 80
2020-07-17 14:00:00 23.5 13 Noroeste 29 Noroeste 0 -- -- 76
2020-07-17 13:00:00 23.3 16 Noroeste 29 Noroeste 0 -- -- 77
2020-07-17 12:00:00 22.2 14 Noroeste 27 Noroeste 0 -- -- 81
2020-07-17 11:00:00 22.1 12 Noroeste 24 Noroeste 0 -- -- 82
2020-07-17 10:00:00 20.6 14 Noroeste 24 Oeste 0 -- -- 88
2020-07-17 09:00:00 19.6 14 Noroeste 22 Oeste 0 -- -- 92
2020-07-17 08:00:00 18.7 10 Oeste 21 Oeste 0 -- -- 94
2020-07-17 07:00:00 18.7 10 Oeste 21 Oeste 0 -- -- 94
2020-07-17 06:00:00 18.7 12 Oeste 22 Oeste 0 -- -- 94
2020-07-17 05:00:00 18.7 8 Oeste 18 Oeste 0 -- -- 94
2020-07-17 04:00:00 18.8 9 Oeste 18 Oeste 0 -- -- 93
2020-07-17 03:00:00 18.9 9 Noroeste 18 Oeste 0 -- -- 93
2020-07-17 02:00:00 19 10 Noroeste 18 Noroeste 0 -- -- 93
2020-07-17 01:00:00 19.2 9 Noroeste 18 Noroeste 0 -- -- 92
2020-07-17 00:00:00 19.3 12 Noroeste 19 Oeste 0 -- -- 91
2020-07-16 23:00:00 19.4 12 Noroeste 22 Noroeste 0 -- -- 90
2020-07-16 22:00:00 19.6 12 Noroeste 26 Noroeste 0 -- -- 89
2020-07-16 21:00:00 19.9 14 Noroeste 27 Noroeste 0 -- -- 88
2020-07-16 20:00:00 20.6 17 Noroeste 27 Noroeste 0 -- -- 85
2020-07-16 19:00:00 22 15 Noroeste 29 Noroeste 0 -- -- 79
2020-07-16 18:00:00 22.5 17 Noroeste 33 Noroeste 0 -- -- 76
2020-07-16 17:00:00 23 17 Noroeste 29 Noroeste 0 -- -- 74
2020-07-16 16:00:00 23.2 15 Noroeste 29 Noroeste 0 -- -- 74
2020-07-16 15:00:00 23.3 15 Noroeste 25 Noroeste 0 -- -- 73
2020-07-16 14:00:00 23.3 13 Norte 25 Noroeste 0 -- -- 74
2020-07-16 13:00:00 22.4 15 Noroeste 27 Noroeste 0 -- -- 77
2020-07-16 12:00:00 22 14 Noroeste 24 Noroeste 0 -- -- 78
2020-07-16 11:00:00 21 17 Noroeste 25 Noroeste 0 -- -- 82
2020-07-16 10:00:00 20.2 14 Noroeste 24 Noroeste 0 -- -- 85
2020-07-16 09:00:00 19.6 13 Noroeste 23 Oeste 0 -- -- 87
2020-07-16 08:00:00 19.2 14 Noroeste 24 Noroeste 0 -- -- 89
2020-07-16 07:00:00 19.1 12 Noroeste 21 Noroeste 0 -- -- 90
2020-07-16 06:00:00 19.1 10 Noroeste 22 Oeste 0 -- -- 90
2020-07-16 05:00:00 19.1 11 Noroeste 21 Oeste 0 -- -- 90
2020-07-16 04:00:00 19.1 10 Noroeste 23 Noroeste 0 -- -- 90
2020-07-16 03:00:00 19.2 12 Noroeste 22 Oeste 0 -- -- 90
2020-07-16 02:00:00 19.3 12 Noroeste 26 Oeste 0 -- -- 90
2020-07-16 01:00:00 19.4 15 Noroeste 26 Noroeste 0 -- -- 89
2020-07-16 00:00:00 19.5 15 Noroeste 28 Oeste 0 -- -- 89
2020-07-15 23:00:00 19.5 15 Noroeste 28 Noroeste 0 -- -- 88
2020-07-15 22:00:00 19.7 17 Noroeste 35 Oeste 0 -- -- 87
2020-07-15 21:00:00 19.9 16 Noroeste 33 Noroeste 0 -- -- 90
2020-07-15 20:00:00 20.3 19 Noroeste 33 Noroeste 0 -- -- 86
2020-07-15 19:00:00 20.6 18 Noroeste 32 Noroeste 0 -- -- 86
2020-07-15 18:00:00 21.4 20 Noroeste 33 Noroeste 0 -- -- 83
2020-07-15 17:00:00 21.8 18 Noroeste 33 Noroeste 0 -- -- 82
2020-07-15 16:00:00 22.1 19 Noroeste 36 Noroeste 0 -- -- 82
2020-07-15 15:00:00 22.4 19 Noroeste 36 Noroeste 0 -- -- 80
2020-07-15 14:00:00 22.2 20 Noroeste 37 Noroeste 0 -- -- 80
2020-07-15 13:00:00 22.2 21 Noroeste 37 Noroeste 0 -- -- 80
2020-07-15 12:00:00 22.4 21 Noroeste 35 Noroeste 0 -- -- 79
2020-07-15 11:00:00 21.8 20 Noroeste 37 Noroeste 0 -- -- 78
2020-07-15 10:00:00 20.9 19 Noroeste 36 Oeste 0 -- -- 83
2020-07-15 09:00:00 20 21 Oeste 35 Oeste 0 -- -- 87
2020-07-15 08:00:00 19.4 21 Noroeste 44 Oeste 0 -- -- 88
2020-07-15 07:00:00 19.2 19 Noroeste 37 Noroeste 0 -- -- 87
2020-07-15 06:00:00 19.1 20 Oeste 39 Noroeste 0 -- -- 85
2020-07-15 05:00:00 18.8 22 Noroeste 38 Noroeste 0 -- -- 90
2020-07-15 04:00:00 19.3 21 Noroeste 36 Oeste 0 -- -- 89
2020-07-15 03:00:00 19.2 22 Noroeste 36 Oeste 0 -- -- 89
2020-07-15 02:00:00 19.1 22 Noroeste 40 Oeste 0 -- -- 90
2020-07-15 01:00:00 19.3 21 Noroeste 39 Noroeste 0 -- -- 90
2020-07-15 00:00:00 19.4 24 Noroeste 37 Oeste 0 -- -- 89
2020-07-14 23:00:00 19.6 23 Noroeste 36 Oeste 0 -- -- 87
2020-07-14 22:00:00 19.9 21 Noroeste 38 Noroeste 0 -- -- 89
2020-07-14 21:00:00 20.3 21 Noroeste 40 Noroeste 0 -- -- 88
2020-07-14 20:00:00 20.5 23 Noroeste 40 Oeste 0 -- -- 86
2020-07-14 19:00:00 20.7 23 Noroeste 42 Oeste 0 -- -- 85
2020-07-14 18:00:00 21.3 23 Noroeste 46 Oeste 0 -- -- 81
2020-07-14 17:00:00 21.5 24 Noroeste 42 Oeste 0 -- -- 79
2020-07-14 16:00:00 21.5 25 Noroeste 44 Noroeste 0 -- -- 80
2020-07-14 15:00:00 22.1 27 Noroeste 42 Noroeste 0 -- -- 75
2020-07-14 14:00:00 21.1 27 Noroeste 42 Noroeste 0 -- -- 80
2020-07-14 13:00:00 21.6 23 Noroeste 43 Noroeste 0 -- -- 74
2020-07-14 12:00:00 20.6 23 Noroeste 45 Oeste 0 -- -- 80
2020-07-14 11:00:00 20.4 18 Noroeste 40 Noroeste 0 -- -- 79
2020-07-14 10:00:00 19.8 19 Noroeste 40 Noroeste 0 -- -- 81
2020-07-14 09:00:00 19.3 20 Noroeste 43 Noroeste 0 -- -- 81
2020-07-14 08:00:00 19 19 Noroeste 36 Oeste 0 -- -- 84
2020-07-14 07:00:00 18.7 21 Noroeste 37 Oeste 0 -- -- 83
2020-07-14 06:00:00 18.8 18 Noroeste 36 Oeste 0 -- -- 82
2020-07-14 05:00:00 18.7 21 Noroeste 39 Oeste 0 -- -- 84
2020-07-14 04:00:00 18.7 19 Noroeste 34 Noroeste 0 -- -- 83
2020-07-14 03:00:00 18.8 17 Noroeste 37 Noroeste 0 -- -- 84
2020-07-14 02:00:00 19.1 17 Noroeste 35 Oeste 0 -- -- 83
2020-07-14 01:00:00 19.2 18 Noroeste 35 Noroeste 0 -- -- 83
2020-07-14 00:00:00 19.3 20 Noroeste 34 Noroeste 0 -- -- 85
2020-07-13 23:00:00 19.6 17 Noroeste 33 Noroeste 0 -- -- 84
2020-07-13 22:00:00 19.7 17 Noroeste 32 Noroeste 0 -- -- 83
2020-07-13 21:00:00 19.9 17 Noroeste 33 Noroeste 0 -- -- 82
2020-07-13 20:00:00 20.2 18 Noroeste 35 Noroeste 0 -- -- 82
2020-07-13 19:00:00 21.1 18 Noroeste 34 Noroeste 0 -- -- 79
2020-07-13 18:00:00 21.4 19 Noroeste 35 Noroeste 0 -- -- 78
2020-07-13 17:00:00 21.6 21 Noroeste 30 Noroeste 0 -- -- 78
2020-07-13 16:00:00 22.4 15 Noroeste 30 Noroeste 0 -- -- 76
2020-07-13 15:00:00 22.6 19 Noroeste 28 Noroeste 0 -- -- 74
2020-07-13 14:00:00 22.8 16 Noroeste 26 Noroeste 0 -- -- 75
2020-07-13 13:00:00 21.7 17 Noroeste 27 Noroeste 0 -- -- 79
2020-07-13 12:00:00 20.9 15 Noroeste 27 Noroeste 0 -- -- 81
2020-07-13 11:00:00 20 12 Noroeste 23 Oeste 0 -- -- 84
2020-07-13 10:00:00 19.5 13 Noroeste 25 Noroeste 0 -- -- 86
2020-07-13 09:00:00 19.2 13 Noroeste 23 Noroeste 0 -- -- 88
2020-07-13 08:00:00 18.9 10 Noroeste 23 Noroeste 0 -- -- 90
2020-07-13 07:00:00 18.6 12 Noroeste 23 Noroeste 0 -- -- 89
2020-07-13 06:00:00 18.6 12 Noroeste 24 Oeste 0 -- -- 90
2020-07-13 05:00:00 18.8 12 Noroeste 25 Oeste 0 -- -- 90
2020-07-13 04:00:00 18.8 13 Noroeste 22 Noroeste 0 -- -- 89
2020-07-13 03:00:00 18.7 10 Noroeste 18 Noroeste 0 -- -- 90
2020-07-13 02:00:00 19.1 11 Noroeste 23 Noroeste 0 -- -- 89
2020-07-13 01:00:00 19.3 12 Noroeste 23 Noroeste 0 -- -- 87
2020-07-13 00:00:00 19.6 14 Noroeste 22 Noroeste 0 -- -- 86
2020-07-12 23:00:00 19.8 12 Noroeste 23 Oeste 0 -- -- 85
2020-07-12 22:00:00 19.8 14 Noroeste 25 Noroeste 0 -- -- 85
2020-07-12 21:00:00 20.2 15 Noroeste 26 Noroeste 0 -- -- 84
2020-07-12 20:00:00 20.8 13 Noroeste 28 Noroeste 0 -- -- 82
2020-07-12 19:00:00 21.3 16 Noroeste 26 Noroeste 0 -- -- 79
2020-07-12 18:00:00 22.5 15 Noroeste 25 Noroeste 0 -- -- 76
2020-07-12 17:00:00 23 15 Noroeste 26 Norte 0 -- -- 73
2020-07-12 16:00:00 23.6 13 Noroeste 22 Noroeste 0 -- -- 71
2020-07-12 15:00:00 23.2 13 Noroeste 23 Noroeste 0 -- -- 72
2020-07-12 14:00:00 23.1 13 Norte 26 Noroeste 0 -- -- 73
2020-07-12 13:00:00 22.5 15 Noroeste 24 Noroeste 0 -- -- 75
2020-07-12 12:00:00 22.1 14 Noroeste 25 Noroeste 0 -- -- 75
2020-07-12 11:00:00 21.7 14 Noroeste 23 Noroeste 0 -- -- 78
2020-07-12 10:00:00 20.6 14 Noroeste 23 Noroeste 0 -- -- 81
2020-07-12 09:00:00 19.6 12 Noroeste 22 Noroeste 0 -- -- 85
2020-07-12 08:00:00 18.6 10 Oeste 22 Oeste 0 -- -- 89
2020-07-12 07:00:00 18.6 12 Noroeste 22 Oeste 0 -- -- 88
2020-07-12 06:00:00 18.7 12 Oeste 26 Noroeste 0 -- -- 88
2020-07-12 05:00:00 19.2 15 Noroeste 27 Noroeste 0 -- -- 86
2020-07-12 04:00:00 19.4 14 Noroeste 26 Oeste 0 -- -- 85
2020-07-12 03:00:00 19.4 13 Noroeste 25 Noroeste 0 -- -- 87
2020-07-12 02:00:00 19.5 13 Noroeste 26 Noroeste 0 -- -- 87
2020-07-12 01:00:00 19.7 15 Noroeste 27 Noroeste 0 -- -- 86
2020-07-12 00:00:00 19.7 14 Noroeste 26 Oeste 0 -- -- 86
2020-07-11 23:00:00 20 16 Noroeste 28 Sudoeste 0 -- -- 85
2020-07-11 22:00:00 20.1 16 Noroeste 28 Oeste 0 -- -- 84
2020-07-11 21:00:00 20.5 14 Noroeste 29 Noroeste 0 -- -- 82
2020-07-11 20:00:00 20.7 17 Noroeste 32 Noroeste 0 -- -- 81
2020-07-11 19:00:00 21.7 16 Noroeste 30 Oeste 0 -- -- 74
2020-07-11 18:00:00 22.1 18 Noroeste 35 Oeste 0 -- -- 73
2020-07-11 17:00:00 22.7 21 Noroeste 37 Noroeste 0 -- -- 71
2020-07-11 16:00:00 22.8 20 Noroeste 35 Noroeste 0 -- -- 72
2020-07-11 15:00:00 22.7 20 Noroeste 34 Oeste 0 -- -- 71
2020-07-11 14:00:00 22.9 18 Noroeste 33 Noroeste 0 -- -- 72
2020-07-11 13:00:00 22.3 19 Noroeste 33 Noroeste 0 -- -- 73
2020-07-11 12:00:00 21.3 15 Noroeste 32 Noroeste 0 -- -- 80
2020-07-11 11:00:00 20.7 20 Noroeste 31 Oeste 0 -- -- 80
2020-07-11 10:00:00 19.9 19 Noroeste 32 Oeste 0 -- -- 85
2020-07-11 09:00:00 19.6 14 Noroeste 28 Oeste 0 -- -- 85
2020-07-11 08:00:00 19.4 15 Noroeste 29 Noroeste 0 -- -- 89
2020-07-11 07:00:00 19.3 13 Noroeste 25 Oeste 0 -- -- 86
2020-07-11 06:00:00 19.2 13 Noroeste 26 Norte 0 -- -- 90
2020-07-11 05:00:00 19.4 14 Noroeste 29 Noroeste 0 -- -- 87
2020-07-11 04:00:00 19.6 15 Noroeste 32 Norte 0 -- -- 85
2020-07-11 03:00:00 19.7 16 Noroeste 35 Oeste 0 -- -- 85
2020-07-11 02:00:00 19.8 18 Noroeste 31 Oeste 0 -- -- 84
2020-07-11 01:00:00 19.7 17 Noroeste 32 Noroeste 0 -- -- 84
2020-07-11 00:00:00 20 15 Noroeste 29 Oeste 0 -- -- 83
2020-07-10 23:00:00 20 15 Noroeste 34 Noroeste 0 -- -- 84
2020-07-10 22:00:00 20.1 16 Noroeste 33 Noroeste 0 -- -- 83
2020-07-10 21:00:00 20 22 Noroeste 36 Noroeste 0 -- -- 80
2020-07-10 20:00:00 20.4 20 Noroeste 40 Noroeste 0 -- -- 80
2020-07-10 19:00:00 20.8 21 Noroeste 37 Noroeste 0 -- -- 79
2020-07-10 18:00:00 21.4 19 Noroeste 36 Oeste 0 -- -- 76
2020-07-10 17:00:00 22.2 19 Noroeste 40 Noroeste 0 -- -- 76
2020-07-10 16:00:00 21.9 19 Noroeste 35 Noroeste 0 -- -- 76
2020-07-10 15:00:00 22.3 18 Noroeste 36 Noroeste 0 -- -- 75
2020-07-10 14:00:00 21.5 24 Noroeste 35 Noroeste 0 -- -- 76
2020-07-10 13:00:00 22 21 Noroeste 37 Norte 0 -- -- 73
2020-07-10 12:00:00 22 21 Noroeste 34 Noroeste 0 -- -- 72
2020-07-10 11:00:00 21.1 21 Noroeste 32 Noroeste 0 -- -- 74
2020-07-10 10:00:00 20.1 19 Noroeste 31 Noroeste 0 -- -- 77
2020-07-10 09:00:00 19.5 14 Noroeste 29 Noroeste 0 -- -- 82
2020-07-10 08:00:00 19.1 18 Noroeste 29 Noroeste 0 -- -- 84
2020-07-10 07:00:00 19.2 13 Noroeste 27 Noroeste 0 -- -- 81
2020-07-10 06:00:00 19.1 14 Noroeste 29 Noroeste 0 -- -- 84
2020-07-10 05:00:00 19.1 14 Noroeste 27 Noroeste 0 -- -- 81
2020-07-10 04:00:00 19.1 14 Noroeste 29 Oeste 0 -- -- 82
2020-07-10 03:00:00 19.1 15 Noroeste 30 Noroeste 0 -- -- 82
2020-07-10 02:00:00 19.2 17 Noroeste 36 Noroeste 0 -- -- 83
2020-07-10 01:00:00 19.3 19 Noroeste 33 Noroeste 0 -- -- 83
2020-07-10 00:00:00 19.5 17 Noroeste 28 Noroeste 0 -- -- 85
2020-07-09 23:00:00 19.6 15 Noroeste 31 Noroeste 0 -- -- 83
2020-07-09 22:00:00 19.6 16 Noroeste 32 Noroeste 0 -- -- 82
2020-07-09 21:00:00 19.7 16 Noroeste 31 Noroeste 0 -- -- 84
2020-07-09 20:00:00 19.9 19 Noroeste 32 Noroeste 0 -- -- 82
2020-07-09 19:00:00 20.6 19 Noroeste 32 Noroeste 0 -- -- 81
2020-07-09 18:00:00 21.6 18 Noroeste 30 Norte 0 -- -- 77
2020-07-09 17:00:00 22.3 18 Noroeste 30 Noroeste 0 -- -- 75
2020-07-09 16:00:00 22.6 19 Noroeste 30 Noroeste 0 -- -- 74
2020-07-09 15:00:00 23 19 Noroeste 28 Noroeste 0 -- -- 71
2020-07-09 14:00:00 23.6 15 Noroeste 26 Norte 0 -- -- 70
2020-07-09 13:00:00 22.8 16 Noroeste 28 Noroeste 0 -- -- 73
2020-07-09 12:00:00 22.5 14 Noroeste 28 Noroeste 0 -- -- 75
2020-07-09 11:00:00 21.3 15 Noroeste 25 Noroeste 0 -- -- 79
2020-07-09 10:00:00 20.5 13 Noroeste 27 Oeste 0 -- -- 85
2020-07-09 09:00:00 19.5 13 Noroeste 25 Noroeste 0 -- -- 88
2020-07-09 08:00:00 18.9 17 Noroeste 27 Oeste 0 -- -- 89
2020-07-09 07:00:00 18.9 15 Noroeste 26 Oeste 0 -- -- 90
2020-07-09 06:00:00 18.9 16 Noroeste 28 Oeste 0 -- -- 91
2020-07-09 05:00:00 19 15 Noroeste 26 Noroeste 0 -- -- 91
2020-07-09 04:00:00 18.8 13 Noroeste 28 Oeste 0 -- -- 93
2020-07-09 03:00:00 19 14 Oeste 27 Oeste 0 -- -- 94
2020-07-09 02:00:00 19.2 13 Noroeste 23 Oeste 0 -- -- 94
2020-07-09 01:00:00 19.4 11 Noroeste 22 Oeste 0 -- -- 93
2020-07-09 00:00:00 19.7 10 Oeste 21 Oeste 0 -- -- 92
2020-07-08 23:00:00 20.1 9 Oeste 19 Oeste 0 -- -- 90
2020-07-08 22:00:00 20.7 10 Oeste 20 Oeste 0 -- -- 87
2020-07-08 21:00:00 21.8 10 Oeste 18 Oeste 0 -- -- 82
2020-07-08 20:00:00 23.9 11 Noroeste 19 Oeste 0 -- -- 70
2020-07-08 19:00:00 25.5 10 Noroeste 20 Noroeste 0 -- -- 56
2020-07-08 18:00:00 25.5 13 Noroeste 20 Noroeste 0 -- -- 61
2020-07-08 17:00:00 26.9 10 Noroeste 26 Noroeste 0 -- -- 53
2020-07-08 16:00:00 24.9 13 Noroeste 33 Noroeste 0 -- -- 67
2020-07-08 15:00:00 23.7 16 Noroeste 28 Noroeste 0 -- -- 75
2020-07-08 14:00:00 23.7 15 Noroeste 27 Noroeste 0 -- -- 76
2020-07-08 13:00:00 23.8 15 Noroeste 30 Oeste 0 -- -- 74
2020-07-08 12:00:00 23.8 13 Noroeste 28 Noroeste 0 -- -- 74
2020-07-08 11:00:00 22 16 Noroeste 28 Noroeste 0 -- -- 81
2020-07-08 10:00:00 21.1 14 Noroeste 25 Noroeste 0 -- -- 87
2020-07-08 09:00:00 19.9 15 Noroeste 30 Noroeste 0 -- -- 93
2020-07-08 08:00:00 19.4 16 Oeste 32 Oeste 0 -- -- 95
2020-07-08 07:00:00 19.3 18 Noroeste 30 Oeste 0 -- -- 95
2020-07-08 06:00:00 19.2 8 Oeste 24 Oeste 0 -- -- 95
2020-07-08 05:00:00 19.2 11 Oeste 21 Oeste 0 -- -- 95
2020-07-08 04:00:00 19.4 6 Oeste 19 Oeste 0 -- -- 95
2020-07-08 03:00:00 19.5 9 Oeste 24 Oeste 0 -- -- 95
2020-07-08 02:00:00 19.7 12 Oeste 24 Oeste 0 -- -- 95
2020-07-08 01:00:00 20 9 Oeste 26 Oeste 0 -- -- 95
2020-07-08 00:00:00 20.1 11 Oeste 24 Oeste 0 -- -- 95